createdAt,value
2022-08-05T00:01:35.596Z,50.06
2022-08-05T00:04:08.359Z,49.85
2022-08-05T00:06:37.164Z,49.69
2022-08-05T00:09:13.141Z,49.56
2022-08-05T00:11:49.017Z,49.78
2022-08-05T00:14:26.487Z,49.39
2022-08-05T00:16:56.424Z,49.83
2022-08-05T00:19:33.432Z,49.84
2022-08-05T00:22:02.554Z,49.91
2022-08-05T00:24:31.596Z,49.95
2022-08-05T00:27:04.729Z,49.89
2022-08-05T00:29:50.804Z,50.05
2022-08-05T00:32:19.278Z,49.47
2022-08-05T00:35:03.761Z,49.57
2022-08-05T00:37:51.394Z,50.54
2022-08-05T00:40:28.119Z,49.90
2022-08-05T00:43:01.043Z,49.66
2022-08-05T00:45:42.905Z,49.03
2022-08-05T00:48:14.078Z,49.41
2022-08-05T00:50:46.038Z,48.89
2022-08-05T00:54:01.139Z,49.35
2022-08-05T00:56:05.694Z,49.44
2022-08-05T00:58:38.981Z,49.33
2022-08-05T01:01:12.180Z,49.56
2022-08-05T01:03:41.522Z,49.72
2022-08-05T01:06:14.221Z,49.68
2022-08-05T01:08:44.790Z,49.77
2022-08-05T01:11:21.896Z,49.61
2022-08-05T01:14:04.299Z,49.99
2022-08-05T01:16:44.602Z,50.26
2022-08-05T01:19:46.265Z,49.81
2022-08-05T01:22:42.039Z,50.36
2022-08-05T01:25:43.457Z,50.30
2022-08-05T01:28:39.459Z,50.72
2022-08-05T01:31:13.709Z,50.23
2022-08-05T01:33:49.209Z,50.53
2022-08-05T01:36:21.212Z,50.41
2022-08-05T01:39:00.981Z,50.29
2022-08-05T01:41:34.446Z,50.15
2022-08-05T01:44:09.807Z,50.71
2022-08-05T01:46:46.079Z,50.84
2022-08-05T01:49:23.742Z,51.45
2022-08-05T01:52:01.106Z,51.39
2022-08-05T01:54:33.494Z,51.57
2022-08-05T01:58:12.869Z,51.44
2022-08-05T01:59:59.278Z,51.61
2022-08-05T02:02:29.645Z,51.32
2022-08-05T02:05:03.124Z,51.27
2022-08-05T02:07:33.683Z,51.28
2022-08-05T02:10:04.259Z,51.70
2022-08-05T02:12:45.612Z,52.34
2022-08-05T02:15:25.649Z,52.44
2022-08-05T02:18:32.940Z,52.28
2022-08-05T02:20:58.917Z,52.63
2022-08-05T02:23:33.568Z,52.36
2022-08-05T02:26:06.371Z,52.52
2022-08-05T02:28:42.180Z,52.34
2022-08-05T02:31:21.375Z,52.45
2022-08-05T02:33:57.513Z,52.05
2022-08-05T02:36:27.918Z,52.59
2022-08-05T02:39:03.203Z,52.65
2022-08-05T02:41:43.194Z,52.93
2022-08-05T02:44:24.836Z,52.83
2022-08-05T02:47:00.396Z,53.04
2022-08-05T02:49:35.668Z,53.47
2022-08-05T02:52:09.544Z,52.46
2022-08-05T02:54:42.786Z,52.31
2022-08-05T02:58:10.938Z,52.43
2022-08-05T03:00:14.434Z,52.89
2022-08-05T03:02:46.547Z,52.60
2022-08-05T03:05:16.539Z,52.92
2022-08-05T03:08:04.320Z,53.36
2022-08-05T03:10:37.726Z,52.67
2022-08-05T03:13:16.702Z,52.65
2022-08-05T03:15:47.075Z,53.43
2022-08-05T03:18:17.448Z,53.27
2022-08-05T03:20:48.899Z,53.52
2022-08-05T03:23:17.926Z,53.45
2022-08-05T03:26:04.321Z,53.49
2022-08-05T03:28:35.807Z,53.36
2022-08-05T03:31:05.507Z,53.20
2022-08-05T03:33:51.473Z,53.65
2022-08-05T03:36:30.215Z,53.97
2022-08-05T03:38:59.267Z,53.25
2022-08-05T03:41:33.103Z,53.06
2022-08-05T03:44:11.196Z,53.14
2022-08-05T03:46:40.555Z,53.34
2022-08-05T03:49:10.389Z,53.46
2022-08-05T03:52:38.780Z,53.60
2022-08-05T03:55:50.145Z,54.16
2022-08-05T03:57:41.704Z,54.69
2022-08-05T04:00:15.808Z,55.47
2022-08-05T04:02:58.154Z,54.84
2022-08-05T04:05:33.942Z,55.46
2022-08-05T04:08:05.865Z,55.61
2022-08-05T04:10:45.415Z,54.74
2022-08-05T04:13:14.313Z,54.74
2022-08-05T04:15:52.697Z,54.21
2022-08-05T04:18:32.369Z,53.68
2022-08-05T04:21:07.590Z,53.78
2022-08-05T04:24:05.851Z,53.54
2022-08-05T04:26:32.311Z,53.28
2022-08-05T04:29:01.331Z,53.69
2022-08-05T04:31:38.697Z,53.47
2022-08-05T04:34:19.342Z,53.25
2022-08-05T04:36:57.924Z,53.31
2022-08-05T04:39:27.493Z,53.36
2022-08-05T04:41:56.315Z,53.57
2022-08-05T04:44:29.534Z,53.35
2022-08-05T04:46:59.628Z,53.15
2022-08-05T04:49:38.966Z,52.77
2022-08-05T04:52:18.725Z,53.62
2022-08-05T04:54:47.440Z,53.29
2022-08-05T04:57:17.999Z,52.76
2022-08-05T04:59:48.015Z,52.94
2022-08-05T05:02:36.136Z,53.22
2022-08-05T05:05:26.451Z,52.89
2022-08-05T05:08:00.853Z,53.55
2022-08-05T05:10:33.589Z,53.23
2022-08-05T05:13:04.286Z,53.59
2022-08-05T05:15:57.512Z,53.26
2022-08-05T05:18:31.638Z,52.93
2022-08-05T05:21:03.715Z,53.31
2022-08-05T05:24:02.029Z,53.20
2022-08-05T05:26:28.359Z,52.89
2022-08-05T05:29:10.127Z,53.07
2022-08-05T05:31:46.178Z,52.57
2022-08-05T05:34:15.646Z,52.61
2022-08-05T05:36:47.031Z,52.58
2022-08-05T05:39:19.001Z,52.52
2022-08-05T05:41:54.101Z,51.59
2022-08-05T05:44:36.358Z,51.93
2022-08-05T05:47:30.257Z,52.14
2022-08-05T05:49:56.836Z,52.80
2022-08-05T05:52:33.237Z,51.93
2022-08-05T05:55:13.340Z,52.29
2022-08-05T05:57:52.881Z,51.22
2022-08-05T06:00:27.771Z,51.21
2022-08-05T06:03:01.831Z,51.26
2022-08-05T06:05:31.814Z,51.94
2022-08-05T06:08:02.156Z,50.82
2022-08-05T06:10:36.611Z,51.41
2022-08-05T06:13:06.614Z,51.19
2022-08-05T06:16:30.124Z,50.66
2022-08-05T06:18:31.079Z,50.25
2022-08-05T06:21:00.156Z,49.86
2022-08-05T06:23:32.093Z,50.60
2022-08-05T06:26:21.349Z,49.61
2022-08-05T06:28:52.366Z,50.67
2022-08-05T06:31:21.941Z,50.19
2022-08-05T06:34:07.838Z,49.91
2022-08-05T06:36:57.429Z,50.88
2022-08-05T06:39:27.665Z,49.38
2022-08-05T06:41:59.344Z,49.52
2022-08-05T06:44:28.327Z,49.93
2022-08-05T06:46:57.137Z,49.83
2022-08-05T06:50:00.229Z,48.90
2022-08-05T06:52:36.965Z,48.67
2022-08-05T06:55:03.687Z,49.67
2022-08-05T06:58:02.845Z,49.41
2022-08-05T07:00:24.942Z,48.71
2022-08-05T07:02:54.591Z,48.29
2022-08-05T07:05:31.855Z,48.41
2022-08-05T07:08:10.032Z,47.81
2022-08-05T07:10:39.861Z,47.34
2022-08-05T07:13:58.427Z,45.72
2022-08-05T07:18:00.458Z,45.21
2022-08-05T07:22:28.540Z,44.39
2022-08-05T07:25:23.258Z,43.97
2022-08-05T07:27:58.740Z,42.84
2022-08-05T07:30:34.433Z,40.92
2022-08-05T07:33:04.979Z,40.70
2022-08-05T07:36:03.191Z,41.20
2022-08-05T07:38:32.924Z,41.71
2022-08-05T07:42:06.892Z,41.36
2022-08-05T07:43:56.090Z,42.37
2022-08-05T07:46:27.294Z,41.72
2022-08-05T07:49:02.656Z,40.28
2022-08-05T07:51:48.574Z,39.83
2022-08-05T07:54:30.789Z,41.45
2022-08-05T07:57:17.720Z,39.81
2022-08-05T07:59:54.156Z,39.45
2022-08-05T08:02:31.318Z,37.35
2022-08-05T08:05:17.563Z,39.46
2022-08-05T08:07:59.783Z,37.77
2022-08-05T08:10:30.299Z,38.68
2022-08-05T08:12:59.111Z,37.18
2022-08-05T08:16:34.455Z,37.46
2022-08-05T08:18:21.260Z,35.88
2022-08-05T08:21:02.410Z,36.26
2022-08-05T08:24:02.441Z,35.77
2022-08-05T08:26:26.954Z,35.93
2022-08-05T08:29:21.481Z,35.20
2022-08-05T08:31:48.268Z,35.00
2022-08-05T08:34:18.969Z,34.73
2022-08-05T08:37:05.307Z,34.39
2022-08-05T08:39:37.695Z,35.07
2022-08-05T08:42:32.629Z,34.89
2022-08-05T08:45:18.732Z,34.26
2022-08-05T08:48:07.010Z,34.67
2022-08-05T08:51:22.033Z,33.90
2022-08-05T08:53:44.233Z,34.17
2022-08-05T08:56:13.925Z,33.77
2022-08-05T08:58:47.996Z,33.65
2022-08-05T09:01:18.919Z,35.32
2022-08-05T09:03:54.486Z,34.49
2022-08-05T09:06:29.550Z,32.55
2022-08-05T09:09:01.123Z,32.34
2022-08-05T09:11:52.669Z,31.79
2022-08-05T09:14:59.202Z,31.53
2022-08-05T09:17:40.134Z,31.52
2022-08-05T09:20:02.182Z,31.69
2022-08-05T09:23:18.598Z,30.86
2022-08-05T09:26:01.504Z,30.03
2022-08-05T09:28:34.476Z,29.36
2022-08-05T09:31:22.480Z,28.86
2022-08-05T09:33:56.359Z,26.77
2022-08-05T09:36:27.677Z,26.97
2022-08-05T09:39:18.041Z,26.07
2022-08-05T09:42:20.269Z,25.54
2022-08-05T09:44:56.057Z,25.89
2022-08-05T09:47:47.978Z,26.27
2022-08-05T09:50:37.324Z,25.44
2022-08-05T09:53:08.825Z,24.64
2022-08-05T09:55:56.370Z,24.52
2022-08-05T09:58:29.472Z,25.62
2022-08-05T10:01:15.151Z,25.28
2022-08-05T10:03:59.623Z,25.03
2022-08-05T10:06:28.856Z,24.71
2022-08-05T10:09:24.974Z,24.65
2022-08-05T10:12:18.630Z,25.16
2022-08-05T10:15:17.032Z,24.83
2022-08-05T10:18:14.117Z,25.10
2022-08-05T10:20:47.898Z,26.29
2022-08-05T10:23:34.321Z,26.31
2022-08-05T10:26:14.383Z,26.57
2022-08-05T10:28:46.976Z,26.33
2022-08-05T10:32:47.462Z,26.11
2022-08-05T10:34:08.135Z,27.06
2022-08-05T10:36:38.480Z,26.80
2022-08-05T10:39:15.399Z,27.43
2022-08-05T10:42:03.728Z,27.86
2022-08-05T10:44:35.708Z,27.41
2022-08-05T10:47:26.061Z,27.90
2022-08-05T10:50:33.009Z,28.13
2022-08-05T10:52:58.521Z,29.06
2022-08-05T10:55:30.455Z,29.23
2022-08-05T10:58:11.208Z,28.88
2022-08-05T11:00:48.491Z,29.13
2022-08-05T11:03:26.931Z,28.96
2022-08-05T11:06:15.692Z,29.08
2022-08-05T11:09:16.889Z,28.92
2022-08-05T11:11:52.950Z,29.36
2022-08-05T11:15:11.825Z,30.37
2022-08-05T11:18:00.087Z,29.57
2022-08-05T11:20:43.962Z,29.53
2022-08-05T11:24:02.644Z,30.74
2022-08-05T11:26:28.049Z,29.87
2022-08-05T11:29:02.441Z,30.01
2022-08-05T11:31:57.201Z,29.65
2022-08-05T11:34:51.998Z,30.55
2022-08-05T11:38:30.792Z,30.09
2022-08-05T11:41:13.854Z,29.93
2022-08-05T11:44:04.925Z,31.60
2022-08-05T11:46:37.859Z,31.49
2022-08-05T11:49:26.224Z,31.27
2022-08-05T11:51:57.546Z,31.58
2022-08-05T11:54:32.935Z,31.17
2022-08-05T11:57:08.013Z,31.54
2022-08-05T11:59:49.891Z,32.17
2022-08-05T12:02:29.652Z,30.67
2022-08-05T12:05:00.386Z,31.62
2022-08-05T12:08:10.329Z,31.42
2022-08-05T12:10:43.093Z,30.96
2022-08-05T12:13:17.240Z,31.34
2022-08-05T12:15:49.865Z,31.26
2022-08-05T12:18:20.478Z,31.19
2022-08-05T12:20:49.228Z,30.29
2022-08-05T12:23:19.354Z,31.63
2022-08-05T12:25:53.319Z,30.25
2022-08-05T12:28:33.248Z,30.98
2022-08-05T12:31:02.676Z,30.75
2022-08-05T12:33:38.472Z,31.09
2022-08-05T12:36:08.964Z,31.16
2022-08-05T12:38:41.349Z,31.67
2022-08-05T12:41:13.796Z,32.05
2022-08-05T12:43:53.877Z,31.72
2022-08-05T12:46:29.198Z,31.00
2022-08-05T12:48:59.800Z,30.85
2022-08-05T12:52:12.115Z,30.92
2022-08-05T12:54:26.639Z,31.06
2022-08-05T12:56:57.949Z,31.13
2022-08-05T12:59:46.866Z,31.54
2022-08-05T13:02:21.906Z,31.16
2022-08-05T13:04:56.763Z,30.95
2022-08-05T13:07:57.761Z,31.56
2022-08-05T13:10:19.455Z,31.68
2022-08-05T13:12:57.742Z,31.76
2022-08-05T13:15:41.872Z,31.52
2022-08-05T13:18:20.503Z,31.99
2022-08-05T13:20:49.941Z,30.49
2022-08-05T13:23:22.501Z,29.58
2022-08-05T13:25:59.347Z,30.11
2022-08-05T13:28:32.132Z,30.47
2022-08-05T13:31:03.280Z,31.08
2022-08-05T13:34:22.601Z,31.78
2022-08-05T13:36:30.846Z,30.97
2022-08-05T13:38:59.356Z,29.70
2022-08-05T13:41:36.065Z,29.28
2022-08-05T13:44:06.423Z,29.60
2022-08-05T13:46:43.916Z,30.69
2022-08-05T13:49:23.624Z,29.47
2022-08-05T13:54:38.273Z,28.90
2022-08-05T13:57:09.572Z,29.42
2022-08-05T13:59:59.270Z,29.22
2022-08-05T14:02:29.750Z,29.06
2022-08-05T14:05:15.121Z,29.39
2022-08-05T14:07:59.681Z,29.34
2022-08-05T14:10:35.549Z,29.05
2022-08-05T14:13:07.958Z,29.15
2022-08-05T14:16:05.346Z,29.56
2022-08-05T14:18:25.516Z,29.61
2022-08-05T14:20:54.939Z,29.64
2022-08-05T14:23:26.445Z,29.90
2022-08-05T14:25:59.085Z,29.78
2022-08-05T14:28:30.346Z,30.06
2022-08-05T14:30:59.750Z,27.66
2022-08-05T14:33:56.293Z,27.89
2022-08-05T14:36:20.649Z,28.50
2022-08-05T14:38:50.397Z,29.26
2022-08-05T14:41:19.389Z,27.66
2022-08-05T14:44:02.575Z,27.51
2022-08-05T14:46:38.395Z,27.97
2022-08-05T14:49:08.416Z,28.38
2022-08-05T14:51:38.229Z,28.40
2022-08-05T14:54:28.386Z,28.43
2022-08-05T14:56:56.412Z,28.13
2022-08-05T14:59:29.736Z,28.16
2022-08-05T15:02:24.358Z,28.21
2022-08-05T15:04:52.964Z,28.72
2022-08-05T15:08:09.008Z,28.66
2022-08-05T15:10:10.652Z,28.82
2022-08-05T15:13:00.556Z,28.93
2022-08-05T15:15:55.842Z,29.08
2022-08-05T15:18:18.962Z,29.46
2022-08-05T15:20:47.439Z,28.91
2022-08-05T15:23:16.217Z,29.27
2022-08-05T15:25:52.302Z,29.52
2022-08-05T15:28:24.410Z,28.92
2022-08-05T15:30:58.035Z,29.41
2022-08-05T15:34:04.588Z,29.02
2022-08-05T15:36:17.479Z,29.44
2022-08-05T15:41:00.357Z,29.43
2022-08-05T15:41:58.184Z,29.46
2022-08-05T15:44:28.111Z,29.41
2022-08-05T15:47:03.821Z,29.82
2022-08-05T15:49:53.322Z,29.97
2022-08-05T15:52:51.851Z,29.87
2022-08-05T15:55:15.568Z,30.14
2022-08-05T15:57:48.879Z,30.03
2022-08-05T16:00:26.311Z,30.24
2022-08-05T16:03:02.858Z,30.20
2022-08-05T16:05:31.573Z,30.24
2022-08-05T16:08:00.274Z,30.33
2022-08-05T16:10:28.830Z,30.48
2022-08-05T16:12:57.882Z,30.79
2022-08-05T16:15:32.345Z,30.45
2022-08-05T16:18:04.328Z,30.82
2022-08-05T16:20:37.876Z,31.03
2022-08-05T16:23:08.565Z,30.77
2022-08-05T16:25:38.045Z,30.83
2022-08-05T16:28:09.714Z,30.71
2022-08-05T16:30:39.602Z,30.75
2022-08-05T16:33:11.480Z,31.24
2022-08-05T16:35:42.982Z,31.02
2022-08-05T16:38:24.510Z,30.79
2022-08-05T16:41:00.421Z,31.65
2022-08-05T16:43:32.343Z,30.92
2022-08-05T16:46:06.487Z,31.74
2022-08-05T16:48:39.227Z,31.87
2022-08-05T16:51:09.702Z,31.73
2022-08-05T16:54:04.706Z,31.13
2022-08-05T16:56:31.088Z,31.08
2022-08-05T16:59:07.483Z,31.51
2022-08-05T17:01:52.934Z,31.62
2022-08-05T17:04:27.603Z,31.15
2022-08-05T17:07:01.166Z,32.13
2022-08-05T17:09:57.708Z,32.34
2022-08-05T17:12:22.780Z,32.82
2022-08-05T17:15:09.495Z,33.43
2022-08-05T17:17:44.464Z,33.13
2022-08-05T17:20:16.498Z,33.42
2022-08-05T17:22:45.079Z,32.83
2022-08-05T17:25:33.445Z,33.03
2022-08-05T17:28:02.345Z,33.00
2022-08-05T17:30:30.876Z,33.09
2022-08-05T17:32:59.421Z,33.30
2022-08-05T17:35:32.531Z,33.45
2022-08-05T17:38:17.848Z,34.06
2022-08-05T17:40:46.319Z,33.79
2022-08-05T17:43:16.043Z,34.25
2022-08-05T17:45:44.541Z,33.83
2022-08-05T17:48:13.326Z,34.44
2022-08-05T17:50:45.711Z,34.65
2022-08-05T17:53:14.219Z,34.75
2022-08-05T17:55:43.146Z,34.70
2022-08-05T17:58:16.150Z,34.63
2022-08-05T18:00:50.953Z,35.21
2022-08-05T18:06:15.176Z,35.43
2022-08-05T18:08:46.162Z,35.52
2022-08-05T18:11:23.717Z,33.61
2022-08-05T18:13:55.408Z,33.66
2022-08-05T18:16:23.937Z,34.63
2022-08-05T18:18:52.361Z,34.48
2022-08-05T18:21:23.020Z,35.03
2022-08-05T18:23:54.752Z,35.49
2022-08-05T18:26:27.690Z,35.22
2022-08-05T18:28:58.821Z,35.27
2022-08-05T18:31:32.863Z,35.54
2022-08-05T18:34:02.536Z,36.25
2022-08-05T18:36:32.444Z,35.90
2022-08-05T18:39:01.944Z,36.41
2022-08-05T18:41:57.138Z,36.30
2022-08-05T18:44:25.849Z,36.46
2022-08-05T18:47:03.929Z,37.20
2022-08-05T18:49:58.324Z,37.12
2022-08-05T18:52:38.077Z,37.12
2022-08-05T18:55:10.412Z,37.33
2022-08-05T18:57:50.317Z,37.28
2022-08-05T19:00:28.652Z,37.18
2022-08-05T19:03:04.197Z,37.77
2022-08-05T19:06:13.613Z,37.98
2022-08-05T19:08:30.620Z,37.47
2022-08-05T19:11:04.901Z,37.96
2022-08-05T19:13:36.720Z,37.96
2022-08-05T19:16:25.046Z,38.43
2022-08-05T19:18:57.136Z,38.41
2022-08-05T19:21:29.499Z,38.18
2022-08-05T19:24:09.035Z,38.57
2022-08-05T19:26:54.650Z,38.79
2022-08-05T19:29:26.751Z,38.77
2022-08-05T19:32:06.199Z,38.74
2022-08-05T19:34:40.577Z,38.87
2022-08-05T19:37:11.411Z,38.97
2022-08-05T19:39:45.944Z,38.89
2022-08-05T19:42:35.725Z,39.28
2022-08-05T19:45:06.444Z,39.50
2022-08-05T19:47:37.723Z,39.09
2022-08-05T19:50:07.820Z,39.49
2022-08-05T19:52:41.265Z,39.51
2022-08-05T19:56:13.999Z,39.68
2022-08-05T19:58:19.345Z,39.79
2022-08-05T20:00:49.222Z,39.97
2022-08-05T20:03:17.870Z,39.70
2022-08-05T20:05:50.607Z,39.86
2022-08-05T20:08:20.886Z,39.95
2022-08-05T20:10:55.374Z,39.90
2022-08-05T20:13:54.937Z,39.99
2022-08-05T20:16:12.383Z,40.66
2022-08-05T20:18:40.977Z,39.85
2022-08-05T20:21:09.958Z,39.55
2022-08-05T20:23:51.014Z,40.29
2022-08-05T20:26:25.956Z,40.53
2022-08-05T20:28:56.765Z,40.29
2022-08-05T20:31:28.291Z,40.43
2022-08-05T20:34:06.295Z,40.42
2022-08-05T20:36:37.071Z,40.68
2022-08-05T20:39:07.743Z,40.47
2022-08-05T20:41:45.054Z,41.22
2022-08-05T20:44:17.804Z,41.04
2022-08-05T20:46:48.557Z,41.13
2022-08-05T20:49:24.074Z,41.03
2022-08-05T20:51:53.335Z,40.73
2022-08-05T20:54:22.909Z,41.04
2022-08-05T20:56:54.796Z,41.43
2022-08-05T20:59:26.699Z,41.17
2022-08-05T21:01:58.054Z,41.56
2022-08-05T21:04:27.635Z,41.74
2022-08-05T21:06:56.207Z,41.69
2022-08-05T21:09:24.775Z,41.89
2022-08-05T21:12:09.193Z,41.83
2022-08-05T21:14:39.965Z,42.12
2022-08-05T21:17:08.430Z,42.06
2022-08-05T21:19:47.182Z,42.62
2022-08-05T21:22:21.758Z,42.57
2022-08-05T21:24:52.591Z,43.11
2022-08-05T21:27:25.269Z,43.24
2022-08-05T21:29:56.462Z,43.13
2022-08-05T21:32:27.356Z,43.00
2022-08-05T21:35:16.661Z,43.02
2022-08-05T21:37:52.755Z,43.02
2022-08-05T21:40:23.307Z,43.47
2022-08-05T21:42:54.303Z,43.23
2022-08-05T21:45:56.624Z,43.37
2022-08-05T21:48:16.263Z,43.45
2022-08-05T21:50:53.131Z,43.40
2022-08-05T21:53:27.189Z,43.46
2022-08-05T21:56:04.999Z,43.70
2022-08-05T21:58:36.989Z,43.92
2022-08-05T22:01:11.642Z,43.61
2022-08-05T22:03:53.628Z,43.63
2022-08-05T22:06:35.190Z,43.52
2022-08-05T22:09:15.471Z,43.82
2022-08-05T22:11:49.709Z,44.19
2022-08-05T22:14:37.267Z,44.07
2022-08-05T22:17:07.589Z,44.22
2022-08-05T22:20:02.476Z,44.21
2022-08-05T22:22:27.741Z,43.93
2022-08-05T22:25:21.190Z,44.12
2022-08-05T22:28:08.538Z,44.38
2022-08-05T22:30:56.518Z,44.73
2022-08-05T22:33:56.890Z,44.59
2022-08-05T22:36:15.893Z,44.83
2022-08-05T22:38:48.029Z,44.91
2022-08-05T22:42:05.373Z,44.56
2022-08-05T22:44:08.354Z,44.87
2022-08-05T22:46:39.443Z,44.58
2022-08-05T22:49:12.362Z,44.95
2022-08-05T22:52:04.611Z,44.93
2022-08-05T22:54:35.327Z,44.80
2022-08-05T22:57:03.919Z,44.88
2022-08-05T22:59:44.176Z,45.05
2022-08-05T23:02:28.798Z,45.47
2022-08-05T23:05:01.431Z,45.03
2022-08-05T23:07:33.730Z,45.63
2022-08-05T23:10:14.790Z,45.73
2022-08-05T23:12:43.997Z,45.86
2022-08-05T23:15:13.139Z,45.51
2022-08-05T23:18:01.354Z,46.13
2022-08-05T23:20:32.639Z,45.73
2022-08-05T23:23:05.721Z,45.71
2022-08-05T23:25:51.862Z,46.33
2022-08-05T23:28:28.866Z,46.84
2022-08-05T23:31:15.942Z,46.29
2022-08-05T23:34:05.045Z,46.60
2022-08-05T23:36:40.197Z,46.35
2022-08-05T23:39:17.314Z,46.24
2022-08-05T23:41:52.728Z,46.63
2022-08-05T23:44:27.851Z,46.18
2022-08-05T23:46:59.968Z,47.25
2022-08-05T23:49:36.072Z,46.99
2022-08-05T23:52:25.047Z,46.64
2022-08-05T23:54:54.074Z,46.65
2022-08-05T23:57:23.104Z,46.64
